Nebraska City, NE (68410)

2:37 PM CDT on May 25, 2015 (GMT -0500)
Dunbar Water Tower | | Change Station
CLOSE
Current Station
Personal Weather Station
Location: Dunbar, NE
Elevation: 1155 ft
Nearby Weather Stations

Elev 1155 ft 40.67 °N, 96.04 °W | Updated 12 minutes ago

Mostly Cloudy
Mostly Cloudy
79.3 °F
Feels Like 82 °F
N
14.0
Wind Variable Wind from SSW

Today
High -- | Low -- °F
--% Chance of Precip.
Yesterday
High -- | Low -- °F
Precip. -- in
5:58 AM 8:42 PM
Waxing Crescent, 51% visible
Pressure 29.81 in
Visibility 10.0 miles
Clouds Scattered Clouds 3400 ft
Scattered Clouds 4000 ft
Mostly Cloudy 5500 ft
Heat Index 82 °F
Dew Point 69 °F
Humidity 70%
Rainfall 0.20 in
Snow Depth Not available.
UV 6 out of 12
Pollen 2.00 out of 12
Air Quality Not available.
Flu Activity No Activity
METAR KAFK 251915Z AUTO 21016G23KT 10SM SCT034 SCT040 BKN055 24/15 A2981 RMK AO2 T02440150

More Conditions Fewer Conditions

Pressure 29.81 in
Visibility 10.0 miles
Clouds Scattered Clouds 3400 ft
Scattered Clouds 4000 ft
Mostly Cloudy 5500 ft
Heat Index 82 °F
Dew Point 69 °F
Humidity 70%
Rainfall 0.20 in
Snow Depth Not available.
UV 6 out of 12
Pollen 2.00 out of 12
Air Quality Not available.
Flu Activity No Activity
METAR KAFK 251915Z AUTO 21016G23KT 10SM SCT034 SCT040 BKN055 24/15 A2981 RMK AO2 T02440150

More Conditions Fewer Conditions

10-Day Weather Forecast

Almanac

Astronomy

May. 25, 2015 Rise Set
Actual Time
Civil Twilight
Nautical Twilight
Astronomical Twilight
Moon
Length of Visible Light
Length of Day
Tomorrow will be .
, % of the Moon is Illuminated

Today's Extremes

State Highs State Lows

Community

WunderPhotos

Upload Photos

1,824,100 photos uploaded!

WunderBlogs® & News

Nearby

Air Quality

  Air Quality AQ Index Pollutant
Not available.

Snow Depth

Station Depth Elevation

Earthquake Activity

City Distance Mag. Time & Date
Minimum magnitude displayed is 2.5.

Coastal Water Temperatures

Place Temperature

Stations

Nearby Weather Stations

Station Location Temp. Windchill Dew Point Humidity Wind Precip. Elev Updated Type